createdAt,value
2022-10-23T00:00:35.167Z,101233.84
2022-10-23T00:03:01.868Z,101235.63
2022-10-23T00:05:29.178Z,101234.75
2022-10-23T00:07:57.615Z,101237.34
2022-10-23T00:10:25.313Z,101238.22
2022-10-23T00:12:52.161Z,101242.56
2022-10-23T00:15:21.324Z,101242.56
2022-10-23T00:17:48.246Z,101251.31
2022-10-23T00:20:16.205Z,101253.03
2022-10-23T00:22:43.731Z,101251.28
2022-10-23T00:25:10.958Z,101242.56
2022-10-23T00:27:37.589Z,101253.03
2022-10-23T00:30:06.012Z,101258.28
2022-10-23T00:34:58.981Z,101261.66
2022-10-23T00:37:25.440Z,101260.03
2022-10-23T00:39:52.010Z,101257.31
2022-10-23T00:42:20.325Z,101257.31
2022-10-23T00:44:46.799Z,101260.75
2022-10-23T00:47:13.730Z,101259.00
2022-10-23T00:49:42.761Z,101263.41
2022-10-23T00:52:12.908Z,101259.94
2022-10-23T00:54:41.481Z,101264.19
2022-10-23T00:57:12.242Z,101262.34
2022-10-23T00:59:39.436Z,101262.44
2022-10-23T01:02:06.977Z,101259.03
2022-10-23T01:04:34.213Z,101250.22
2022-10-23T01:07:08.394Z,101251.97
2022-10-23T01:09:55.263Z,101255.38
2022-10-23T01:12:47.129Z,101251.09
2022-10-23T01:15:41.027Z,101253.63
2022-10-23T01:18:18.104Z,101255.53
2022-10-23T01:21:05.472Z,101261.44
2022-10-23T01:23:52.158Z,101261.34
2022-10-23T01:26:24.661Z,101251.00
2022-10-23T01:29:09.516Z,101245.78
2022-10-23T01:31:39.764Z,101241.38
2022-10-23T01:34:13.388Z,101242.28
2022-10-23T01:36:42.008Z,101249.19
2022-10-23T01:39:12.830Z,101236.94
2022-10-23T01:41:46.750Z,101238.78
2022-10-23T01:44:18.789Z,101238.66
2022-10-23T01:46:47.087Z,101236.03
2022-10-23T01:49:14.280Z,101240.41
2022-10-23T01:51:44.846Z,101233.34
2022-10-23T01:54:13.822Z,101238.72
2022-10-23T01:56:43.430Z,101245.59
2022-10-23T01:59:13.823Z,101243.91
2022-10-23T02:01:42.408Z,101245.59
2022-10-23T02:04:10.739Z,101242.97
2022-10-23T02:06:37.188Z,101243.84
2022-10-23T02:09:04.722Z,101241.22
2022-10-23T02:11:32.497Z,101247.34
2022-10-23T02:14:27.220Z,101243.75
2022-10-23T02:16:55.351Z,101251.66
2022-10-23T02:19:47.769Z,101244.56
2022-10-23T02:22:38.634Z,101239.44
2022-10-23T02:25:16.783Z,101232.53
2022-10-23T02:27:49.367Z,101232.44
2022-10-23T02:30:17.686Z,101237.72
2022-10-23T02:32:49.822Z,101235.91
2022-10-23T02:35:18.364Z,101237.69
2022-10-23T02:37:55.828Z,101240.47
2022-10-23T02:40:24.452Z,101230.09
2022-10-23T02:42:57.332Z,101235.22
2022-10-23T02:45:26.888Z,101229.28
2022-10-23T02:48:07.017Z,101231.84
2022-10-23T02:50:52.084Z,101230.91
2022-10-23T02:53:18.469Z,101231.84
2022-10-23T02:55:55.884Z,101219.66
2022-10-23T02:58:36.088Z,101231.13
2022-10-23T03:01:06.649Z,101232.72
2022-10-23T03:03:36.653Z,101231.75
2022-10-23T03:06:03.738Z,101235.91
2022-10-23T03:08:30.183Z,101237.88
2022-10-23T03:10:56.809Z,101236.16
2022-10-23T03:13:23.581Z,101232.72
2022-10-23T03:15:50.144Z,101242.38
2022-10-23T03:18:16.628Z,101241.38
2022-10-23T03:20:43.065Z,101234.25
2022-10-23T03:23:12.265Z,101233.63
2022-10-23T03:25:38.713Z,101233.59
2022-10-23T03:28:05.146Z,101243.91
2022-10-23T03:30:31.606Z,101243.78
2022-10-23T03:32:58.208Z,101241.16
2022-10-23T03:35:24.651Z,101245.59
2022-10-23T03:37:51.052Z,101247.53
2022-10-23T03:40:17.500Z,101248.25
2022-10-23T03:42:43.949Z,101248.47
2022-10-23T03:45:10.620Z,101244.81
2022-10-23T03:47:41.235Z,101242.22
2022-10-23T03:50:09.472Z,101246.66
2022-10-23T03:52:36.301Z,101258.00
2022-10-23T03:55:03.694Z,101241.47
2022-10-23T03:57:30.149Z,101247.50
2022-10-23T03:59:56.664Z,101244.66
2022-10-23T04:02:23.310Z,101244.97
2022-10-23T04:04:49.855Z,101252.91
2022-10-23T04:07:16.392Z,101245.72
2022-10-23T04:09:42.812Z,101250.03
2022-10-23T04:12:09.589Z,101248.13
2022-10-23T04:14:36.100Z,101242.13
2022-10-23T04:17:02.673Z,101243.00
2022-10-23T04:19:29.146Z,101239.47
2022-10-23T04:21:57.102Z,101228.28
2022-10-23T04:24:24.570Z,101231.00
2022-10-23T04:26:51.404Z,101236.09
2022-10-23T04:29:18.546Z,101235.22
2022-10-23T04:31:45.017Z,101236.09
2022-10-23T04:34:11.456Z,101230.16
2022-10-23T04:36:37.924Z,101228.28
2022-10-23T04:39:04.367Z,101225.69
2022-10-23T04:41:30.925Z,101228.28
2022-10-23T04:43:57.364Z,101233.44
2022-10-23T04:46:23.828Z,101217.88
2022-10-23T04:48:50.290Z,101225.75
2022-10-23T04:51:16.748Z,101230.22
2022-10-23T04:53:43.207Z,101232.81
2022-10-23T04:56:13.250Z,101221.38
2022-10-23T04:58:39.774Z,101226.50
2022-10-23T05:01:07.413Z,101225.53
2022-10-23T05:03:33.987Z,101220.38
2022-10-23T05:06:00.460Z,101226.34
2022-10-23T05:08:26.901Z,101216.91
2022-10-23T05:10:53.340Z,101217.00
2022-10-23T05:13:20.280Z,101221.22
2022-10-23T05:15:48.693Z,101213.34
2022-10-23T05:18:34.253Z,101224.72
2022-10-23T05:21:10.707Z,101223.06
2022-10-23T05:23:38.385Z,101219.66
2022-10-23T05:26:05.207Z,101210.84
2022-10-23T05:28:31.668Z,101216.03
2022-10-23T05:31:00.257Z,101215.19
2022-10-23T05:33:27.266Z,101218.59
2022-10-23T05:35:53.768Z,101216.06
2022-10-23T05:38:20.229Z,101213.34
2022-10-23T05:40:46.798Z,101210.81
2022-10-23T05:43:13.217Z,101203.03
2022-10-23T05:45:39.705Z,101209.13
2022-10-23T05:48:17.005Z,101209.09
2022-10-23T05:50:49.260Z,101205.75
2022-10-23T05:53:15.949Z,101208.16
2022-10-23T05:55:42.410Z,101216.03
2022-10-23T05:58:08.878Z,101214.38
2022-10-23T06:00:35.305Z,101213.41
2022-10-23T06:03:02.893Z,101211.84
2022-10-23T06:05:29.543Z,101210.06
2022-10-23T06:07:59.846Z,101208.22
2022-10-23T06:10:27.385Z,101213.28
2022-10-23T06:12:53.926Z,101209.16
2022-10-23T06:15:20.417Z,101212.69
2022-10-23T06:17:46.892Z,101208.38
2022-10-23T06:20:13.426Z,101217.13
2022-10-23T06:22:40.187Z,101223.13
2022-10-23T06:25:08.083Z,101219.50
2022-10-23T06:27:34.575Z,101209.78
2022-10-23T06:30:01.092Z,101219.66
2022-10-23T06:32:31.889Z,101224.06
2022-10-23T06:34:58.328Z,101221.50
2022-10-23T06:37:25.398Z,101230.31
2022-10-23T06:39:51.865Z,101226.72
2022-10-23T06:42:18.338Z,101229.81
2022-10-23T06:44:44.763Z,101230.09
2022-10-23T06:47:13.062Z,101232.63
2022-10-23T06:49:40.514Z,101231.88
2022-10-23T06:52:14.238Z,101231.00
2022-10-23T06:54:50.431Z,101228.44
2022-10-23T06:57:16.906Z,101225.84
2022-10-23T06:59:44.245Z,101227.63
2022-10-23T07:02:10.739Z,101229.38
2022-10-23T07:04:37.189Z,101231.97
2022-10-23T07:07:03.649Z,101226.81
2022-10-23T07:09:30.241Z,101233.75
2022-10-23T07:11:56.784Z,101227.59
2022-10-23T07:14:23.313Z,101225.00
2022-10-23T07:16:49.772Z,101205.88
2022-10-23T07:19:16.218Z,101215.47
2022-10-23T07:21:42.681Z,101216.34
2022-10-23T07:24:09.139Z,101229.44
2022-10-23T07:26:36.380Z,101218.13
2022-10-23T07:29:02.979Z,101231.25
2022-10-23T07:31:29.530Z,101228.56
2022-10-23T07:33:56.031Z,101233.81
2022-10-23T07:36:23.015Z,101230.31
2022-10-23T07:38:50.681Z,101232.97
2022-10-23T07:41:17.495Z,101229.53
2022-10-23T07:43:44.041Z,101223.44
2022-10-23T07:46:10.508Z,101221.63
2022-10-23T07:48:38.068Z,101231.28
2022-10-23T07:51:10.799Z,101218.16
2022-10-23T07:53:38.192Z,101216.34
2022-10-23T07:56:12.669Z,101205.91
2022-10-23T07:58:39.140Z,101218.09
2022-10-23T08:01:16.223Z,101229.47
2022-10-23T08:03:42.755Z,101230.44
2022-10-23T08:06:09.211Z,101231.34
2022-10-23T08:08:35.687Z,101229.59
2022-10-23T08:11:02.201Z,101213.81
2022-10-23T08:13:28.694Z,101226.06
2022-10-23T08:15:55.961Z,101217.38
2022-10-23T08:18:23.151Z,101211.25
2022-10-23T08:20:52.345Z,101216.50
2022-10-23T08:23:22.987Z,101212.13
2022-10-23T08:25:49.470Z,101219.97
2022-10-23T08:28:16.610Z,101214.75
2022-10-23T08:30:43.026Z,101211.22
2022-10-23T08:33:10.097Z,101211.22
2022-10-23T08:35:38.396Z,101200.69
2022-10-23T08:38:08.224Z,101207.75
2022-10-23T08:40:35.558Z,101206.88
2022-10-23T08:43:11.152Z,101211.25
2022-10-23T08:45:44.163Z,101220.88
2022-10-23T08:48:20.556Z,101218.25
2022-10-23T08:50:56.649Z,101215.63
2022-10-23T08:53:34.900Z,101215.63
2022-10-23T08:56:28.713Z,101212.13
2022-10-23T08:58:58.885Z,101205.13
2022-10-23T09:01:40.895Z,101197.22
2022-10-23T09:04:11.537Z,101192.81
2022-10-23T09:06:50.269Z,101198.94
2022-10-23T09:09:44.754Z,101203.31
2022-10-23T09:12:24.340Z,101206.78
2022-10-23T09:15:09.427Z,101211.22
2022-10-23T09:17:39.532Z,101205.94
2022-10-23T09:20:32.188Z,101215.56
2022-10-23T09:23:05.156Z,101206.88
2022-10-23T09:25:37.703Z,101204.22
2022-10-23T09:28:05.891Z,101206.00
2022-10-23T09:30:39.693Z,101205.09
2022-10-23T09:33:25.889Z,101198.03
2022-10-23T09:35:57.542Z,101201.53
2022-10-23T09:38:29.358Z,101194.34
2022-10-23T09:40:58.957Z,101190.91
2022-10-23T09:43:27.815Z,101194.41
2022-10-23T09:46:03.293Z,101184.75
2022-10-23T09:48:30.284Z,101187.44
2022-10-23T09:51:02.613Z,101183.91
2022-10-23T09:53:41.039Z,101182.97
2022-10-23T09:56:30.809Z,101184.59
2022-10-23T09:59:06.729Z,101191.53
2022-10-23T10:01:38.759Z,101190.63
2022-10-23T10:04:07.246Z,101194.91
2022-10-23T10:06:37.096Z,101186.94
2022-10-23T10:09:08.604Z,101187.94
2022-10-23T10:11:48.294Z,101186.16
2022-10-23T10:14:32.969Z,101184.31
2022-10-23T10:17:24.290Z,101185.22
2022-10-23T10:20:19.522Z,101185.50
2022-10-23T10:22:55.236Z,101174.06
2022-10-23T10:25:29.309Z,101182.59
2022-10-23T10:28:01.811Z,101177.00
2022-10-23T10:30:37.309Z,101179.63
2022-10-23T10:33:14.489Z,101167.00
2022-10-23T10:35:49.601Z,101166.59
2022-10-23T10:38:23.009Z,101161.16
2022-10-23T10:41:26.766Z,101150.25
2022-10-23T10:44:21.472Z,101149.00
2022-10-23T10:47:12.135Z,101152.72
2022-10-23T10:49:42.688Z,101142.00
2022-10-23T10:52:27.445Z,101137.38
2022-10-23T10:54:53.928Z,101126.28
2022-10-23T10:57:47.612Z,101126.59
2022-10-23T11:00:15.845Z,101133.03
2022-10-23T11:02:55.026Z,101118.53
2022-10-23T11:05:34.979Z,101109.22
2022-10-23T11:08:09.580Z,101113.34
2022-10-23T11:10:36.478Z,101102.69
2022-10-23T11:13:02.998Z,101103.66
2022-10-23T11:15:36.397Z,101093.84
2022-10-23T11:18:07.271Z,101087.50
2022-10-23T11:20:52.776Z,101085.69
2022-10-23T11:23:40.891Z,101094.44
2022-10-23T11:26:38.675Z,101082.91
2022-10-23T11:29:23.404Z,101076.22
2022-10-23T11:32:21.081Z,101072.81
2022-10-23T11:35:19.711Z,101069.16
2022-10-23T11:37:57.860Z,101066.84
2022-10-23T11:40:25.026Z,101073.69
2022-10-23T11:42:51.867Z,101059.38
2022-10-23T11:45:34.403Z,101058.06
2022-10-23T11:48:19.755Z,101059.91
2022-10-23T11:50:46.243Z,101057.28
2022-10-23T11:53:26.728Z,101041.13
2022-10-23T11:56:16.532Z,101034.22
2022-10-23T11:58:47.373Z,101028.28
2022-10-23T12:01:24.454Z,101023.91
2022-10-23T12:04:00.710Z,101028.63
2022-10-23T12:06:38.220Z,101028.56
2022-10-23T12:09:08.319Z,101013.50
2022-10-23T12:11:42.183Z,101009.41
2022-10-23T12:14:38.337Z,101007.28
2022-10-23T12:17:23.056Z,101007.28
2022-10-23T12:20:13.898Z,100998.78
2022-10-23T12:23:07.865Z,100988.88
2022-10-23T12:25:34.279Z,100980.06
2022-10-23T12:28:10.481Z,100978.50
2022-10-23T12:30:52.471Z,100972.34
2022-10-23T12:33:46.929Z,100981.81
2022-10-23T12:36:42.383Z,100965.16
2022-10-23T12:39:32.086Z,100959.63
2022-10-23T12:42:00.201Z,100961.97
2022-10-23T12:44:27.247Z,100957.28
2022-10-23T12:46:58.690Z,100952.94
2022-10-23T12:49:27.463Z,100951.19
2022-10-23T12:52:00.621Z,100946.41
2022-10-23T12:54:27.770Z,100939.13
2022-10-23T12:56:54.680Z,100925.59
2022-10-23T12:59:26.463Z,100925.53
2022-10-23T13:01:54.514Z,100913.56
2022-10-23T13:04:33.911Z,100913.00
2022-10-23T13:07:02.422Z,100903.38
2022-10-23T13:09:32.613Z,100901.56
2022-10-23T13:12:01.131Z,100894.25
2022-10-23T13:14:39.338Z,100890.69
2022-10-23T13:17:11.270Z,100882.72
2022-10-23T13:19:38.032Z,100882.53
2022-10-23T13:22:14.584Z,100871.38
2022-10-23T13:24:41.135Z,100872.44
2022-10-23T13:27:39.997Z,100860.41
2022-10-23T13:30:30.876Z,100855.69
2022-10-23T13:32:57.437Z,100861.97
2022-10-23T13:35:24.437Z,100851.19
2022-10-23T13:37:51.234Z,100847.16
2022-10-23T13:40:26.561Z,100836.91
2022-10-23T13:42:54.520Z,100838.06
2022-10-23T13:45:23.798Z,100833.06
2022-10-23T13:47:50.530Z,100824.88
2022-10-23T13:50:17.557Z,100818.44
2022-10-23T13:52:44.101Z,100819.69
2022-10-23T13:55:18.960Z,100820.94
2022-10-23T13:57:45.587Z,100817.72
2022-10-23T14:00:12.684Z,100825.06
2022-10-23T14:02:39.227Z,100810.78
2022-10-23T14:05:05.771Z,100820.09
2022-10-23T14:07:32.226Z,100812.50
2022-10-23T14:09:58.779Z,100813.50
2022-10-23T14:12:25.358Z,100809.94
2022-10-23T14:14:52.561Z,100820.22
2022-10-23T14:17:23.132Z,100812.34
2022-10-23T14:19:50.227Z,100808.53
2022-10-23T14:22:16.792Z,100807.34
2022-10-23T14:24:43.215Z,100799.94
2022-10-23T14:27:09.663Z,100803.38
2022-10-23T14:29:36.116Z,100794.50
2022-10-23T14:32:02.553Z,100804.91
2022-10-23T14:34:29.140Z,100797.34
2022-10-23T14:37:08.063Z,100780.00
2022-10-23T14:39:35.095Z,100763.66
2022-10-23T14:42:01.620Z,100754.38
2022-10-23T14:44:28.181Z,100753.47
2022-10-23T14:46:54.789Z,100754.38
2022-10-23T14:49:21.337Z,100760.44
2022-10-23T14:51:47.802Z,100744.63
2022-10-23T14:54:15.779Z,100754.94
2022-10-23T14:56:42.261Z,100751.00
2022-10-23T14:59:10.687Z,100752.75
2022-10-23T15:01:45.198Z,100748.72
2022-10-23T15:04:14.361Z,100745.09
2022-10-23T15:06:41.672Z,100748.84
2022-10-23T15:09:08.173Z,100754.25
2022-10-23T15:11:35.676Z,100748.00
2022-10-23T15:14:02.147Z,100742.97
2022-10-23T15:16:28.695Z,100733.03
2022-10-23T15:18:55.154Z,100726.34
2022-10-23T15:21:21.919Z,100733.22
2022-10-23T15:23:48.876Z,100724.31
2022-10-23T15:26:21.115Z,100721.66
2022-10-23T15:28:48.480Z,100724.16
2022-10-23T15:31:41.022Z,100720.47
2022-10-23T15:34:18.961Z,100718.25
2022-10-23T15:36:47.060Z,100717.09
2022-10-23T15:39:16.074Z,100715.91
2022-10-23T15:41:43.657Z,100720.81
2022-10-23T15:44:13.653Z,100720.56
2022-10-23T15:46:40.230Z,100729.78
2022-10-23T15:49:08.524Z,100729.88
2022-10-23T15:51:36.863Z,100721.50
2022-10-23T15:54:05.442Z,100711.78
2022-10-23T15:56:34.146Z,100711.78
2022-10-23T15:59:00.815Z,100706.06
2022-10-23T16:01:28.857Z,100692.78
2022-10-23T16:03:55.616Z,100680.78
2022-10-23T16:06:22.146Z,100686.00
2022-10-23T16:08:48.808Z,100682.66
2022-10-23T16:11:23.831Z,100673.53
2022-10-23T16:13:51.014Z,100677.97
2022-10-23T16:16:17.959Z,100663.16
2022-10-23T16:18:44.784Z,100652.28
2022-10-23T16:21:18.631Z,100639.84
2022-10-23T16:23:45.273Z,100631.31
2022-10-23T16:26:12.114Z,100623.81
2022-10-23T16:28:38.617Z,100622.66
2022-10-23T16:31:16.484Z,100621.81
2022-10-23T16:33:46.289Z,100626.28
2022-10-23T16:36:12.898Z,100614.47
2022-10-23T16:38:39.355Z,100619.63
2022-10-23T16:41:07.135Z,100618.66
2022-10-23T16:43:33.883Z,100628.88
2022-10-23T16:46:14.744Z,100632.09
2022-10-23T16:48:41.897Z,100612.47
2022-10-23T16:51:13.867Z,100616.53
2022-10-23T16:53:40.980Z,100615.16
2022-10-23T16:56:08.963Z,100622.25
2022-10-23T16:58:36.022Z,100620.22
2022-10-23T17:01:05.985Z,100621.97
2022-10-23T17:03:37.948Z,100613.06
2022-10-23T17:06:08.877Z,100619.78
2022-10-23T17:08:37.601Z,100626.72
2022-10-23T17:11:25.395Z,100613.56
2022-10-23T17:13:58.488Z,100605.50
2022-10-23T17:16:27.835Z,100600.84
2022-10-23T17:18:54.779Z,100603.09
2022-10-23T17:21:22.389Z,100605.28
2022-10-23T17:23:49.357Z,100596.81
2022-10-23T17:26:18.718Z,100604.84
2022-10-23T17:28:45.414Z,100593.00
2022-10-23T17:31:23.565Z,100599.66
2022-10-23T17:33:52.783Z,100601.28
2022-10-23T17:36:20.842Z,100589.25
2022-10-23T17:38:47.950Z,100590.72
2022-10-23T17:41:16.475Z,100578.50
2022-10-23T17:43:43.683Z,100570.44
2022-10-23T17:46:11.996Z,100564.91
2022-10-23T17:48:43.516Z,100569.97
2022-10-23T17:51:14.107Z,100559.66
2022-10-23T17:53:42.973Z,100562.47
2022-10-23T17:56:11.484Z,100540.69
2022-10-23T17:58:38.339Z,100539.50
2022-10-23T18:01:09.201Z,100540.00
2022-10-23T18:03:37.049Z,100541.06
2022-10-23T18:06:15.493Z,100532.38
2022-10-23T18:08:42.801Z,100529.94
2022-10-23T18:11:15.381Z,100521.97
2022-10-23T18:13:41.856Z,100520.00
2022-10-23T18:16:11.275Z,100515.63
2022-10-23T18:18:39.208Z,100504.38
2022-10-23T18:21:06.439Z,100509.09
2022-10-23T18:23:33.398Z,100505.44
2022-10-23T18:26:01.150Z,100505.28
2022-10-23T18:28:28.198Z,100505.66
2022-10-23T18:30:56.972Z,100515.00
2022-10-23T18:33:23.977Z,100514.16
2022-10-23T18:35:50.693Z,100509.19
2022-10-23T18:38:17.177Z,100508.41
2022-10-23T18:40:43.917Z,100514.66
2022-10-23T18:43:14.915Z,100511.34
2022-10-23T18:45:42.704Z,100518.38
2022-10-23T18:48:09.164Z,100520.25
2022-10-23T18:50:37.121Z,100527.91
2022-10-23T18:53:04.044Z,100517.75
2022-10-23T18:55:30.610Z,100509.47
2022-10-23T18:57:57.131Z,100514.91
2022-10-23T19:00:23.601Z,100514.00
2022-10-23T19:02:52.338Z,100500.00
2022-10-23T19:05:19.384Z,100503.66
2022-10-23T19:07:46.371Z,100495.56
2022-10-23T19:10:15.952Z,100468.53
2022-10-23T19:12:42.987Z,100452.28
2022-10-23T19:15:10.110Z,100460.22
2022-10-23T19:17:37.089Z,100461.00
2022-10-23T19:20:11.523Z,100458.84
2022-10-23T19:22:41.064Z,100467.69
2022-10-23T19:25:15.132Z,100480.88
2022-10-23T19:27:43.683Z,100503.91
2022-10-23T19:30:13.667Z,100501.78
2022-10-23T19:32:41.780Z,100506.91
2022-10-23T19:35:08.937Z,100502.44
2022-10-23T19:37:35.447Z,100513.34
2022-10-23T19:40:06.512Z,100499.38
2022-10-23T19:42:34.025Z,100491.50
2022-10-23T19:45:00.676Z,100498.97
2022-10-23T19:47:27.174Z,100491.88
2022-10-23T19:49:53.630Z,100474.97
2022-10-23T19:52:22.193Z,100465.34
2022-10-23T19:54:49.307Z,100455.72
2022-10-23T19:57:18.065Z,100458.00
2022-10-23T19:59:51.019Z,100461.09
2022-10-23T20:02:19.197Z,100462.28
2022-10-23T20:04:46.249Z,100463.03
2022-10-23T20:07:13.338Z,100453.50
2022-10-23T20:09:40.100Z,100456.41
2022-10-23T20:12:06.835Z,100460.66
2022-10-23T20:14:33.559Z,100468.97
2022-10-23T20:17:00.171Z,100466.63
2022-10-23T20:19:26.643Z,100474.47
2022-10-23T20:21:53.329Z,100464.75
2022-10-23T20:24:20.530Z,100469.38
2022-10-23T20:26:52.665Z,100453.28
2022-10-23T20:29:19.670Z,100455.25
2022-10-23T20:31:46.353Z,100456.69
2022-10-23T20:34:13.117Z,100449.28
2022-10-23T20:36:45.577Z,100446.13
2022-10-23T20:39:16.265Z,100437.69
2022-10-23T20:41:44.025Z,100424.47
2022-10-23T20:44:13.062Z,100416.19
2022-10-23T20:46:39.925Z,100407.41
2022-10-23T20:49:06.485Z,100405.94
2022-10-23T20:51:33.147Z,100392.00
2022-10-23T20:53:59.613Z,100394.34
2022-10-23T20:56:32.269Z,100406.38
2022-10-23T20:58:59.957Z,100404.50
2022-10-23T21:01:26.801Z,100404.72
2022-10-23T21:03:57.052Z,100403.06
2022-10-23T21:06:25.139Z,100395.28
2022-10-23T21:09:00.799Z,100388.81
2022-10-23T21:11:27.436Z,100389.06
2022-10-23T21:13:56.934Z,100371.28
2022-10-23T21:16:28.485Z,100375.28
2022-10-23T21:18:56.845Z,100376.03
2022-10-23T21:21:24.226Z,100375.16
2022-10-23T21:23:51.865Z,100380.41
2022-10-23T21:26:19.644Z,100375.34
2022-10-23T21:28:55.633Z,100383.56
2022-10-23T21:31:27.872Z,100393.44
2022-10-23T21:33:54.365Z,100382.44
2022-10-23T21:36:23.093Z,100361.88
2022-10-23T21:38:51.902Z,100370.59
2022-10-23T21:41:21.804Z,100369.41
2022-10-23T21:43:48.486Z,100371.03
2022-10-23T21:46:17.664Z,100367.25
2022-10-23T21:48:44.335Z,100374.84
2022-10-23T21:51:37.189Z,100363.56
2022-10-23T21:54:08.736Z,100365.78
2022-10-23T21:56:47.439Z,100372.22
2022-10-23T21:59:16.523Z,100364.66
2022-10-23T22:01:47.579Z,100348.63
2022-10-23T22:04:18.492Z,100349.81
2022-10-23T22:06:46.190Z,100345.06
2022-10-23T22:09:15.422Z,100334.06
2022-10-23T22:11:42.377Z,100331.28
2022-10-23T22:14:08.867Z,100334.88
2022-10-23T22:16:35.341Z,100329.75
2022-10-23T22:19:02.321Z,100340.03
2022-10-23T22:21:29.774Z,100329.78
2022-10-23T22:23:57.814Z,100322.56
2022-10-23T22:26:32.865Z,100326.13
2022-10-23T22:29:03.123Z,100317.22
2022-10-23T22:31:31.617Z,100313.63
2022-10-23T22:33:58.653Z,100306.47
2022-10-23T22:36:25.497Z,100306.88
2022-10-23T22:38:52.382Z,100307.41
2022-10-23T22:41:19.160Z,100311.16
2022-10-23T22:43:45.869Z,100305.72
2022-10-23T22:46:17.333Z,100310.84
2022-10-23T22:48:44.534Z,100305.63
2022-10-23T22:51:13.494Z,100303.69
2022-10-23T22:53:40.019Z,100317.84
2022-10-23T22:56:08.106Z,100325.25
2022-10-23T22:58:35.127Z,100321.41
2022-10-23T23:01:23.979Z,100324.88
2022-10-23T23:03:51.428Z,100321.56
2022-10-23T23:06:19.287Z,100327.38
2022-10-23T23:08:46.222Z,100334.06
2022-10-23T23:11:14.632Z,100338.53
2022-10-23T23:13:41.583Z,100337.72
2022-10-23T23:16:08.571Z,100334.59
2022-10-23T23:18:35.131Z,100339.78
2022-10-23T23:21:02.771Z,100333.44
2022-10-23T23:23:29.894Z,100322.03
2022-10-23T23:25:56.738Z,100311.75
2022-10-23T23:28:23.644Z,100313.59
2022-10-23T23:30:50.167Z,100291.50
2022-10-23T23:33:22.299Z,100306.75
2022-10-23T23:35:48.725Z,100309.59
2022-10-23T23:38:15.213Z,100306.22
2022-10-23T23:40:51.304Z,100308.13
2022-10-23T23:43:18.064Z,100303.78
2022-10-23T23:45:44.572Z,100300.06
2022-10-23T23:48:11.108Z,100330.47
2022-10-23T23:50:37.964Z,100336.19
2022-10-23T23:53:04.423Z,100333.41
2022-10-23T23:55:30.884Z,100320.69
2022-10-23T23:57:57.360Z,100315.44
